Time;durP1;ratioP1;P1;durP2;ratioP2;P2;SDS_P1;SDS_P2;PMS_P1;PMS_P2;Temp;Humidity;BMP_temperature;BMP_pressure;BME280_temperature;BME280_humidity;BME280_pressure;Samples;Min_cycle;Max_cycle;Signal;HPM_P1;HPM_P2
2022/07/16 00:03:25;;;;;;;5.55;1.50;;;17.00;97.80;;;;;;5139786;27;20051;-77
2022/07/16 00:05:51;;;;;;;6.50;1.98;;;17.00;97.90;;;;;;5156935;27;20115;-76
2022/07/16 00:08:17;;;;;;;6.03;1.70;;;17.00;97.80;;;;;;5157979;27;20332;-77
2022/07/16 00:10:43;;;;;;;6.23;1.83;;;17.00;98.00;;;;;;5121654;27;20123;-76
2022/07/16 00:13:09;;;;;;;7.00;2.10;;;17.00;97.90;;;;;;5121514;27;20042;-76
2022/07/16 00:15:34;;;;;;;5.20;1.90;;;17.00;97.90;;;;;;5138668;27;20115;-75
2022/07/16 00:20:46;;;;;;;6.27;2.30;;;16.90;98.40;;;;;;5138923;27;20129;-80
2022/07/16 00:23:11;;;;;;;5.25;2.22;;;16.90;98.10;;;;;;5104652;27;20676;-74
2022/07/16 00:25:37;;;;;;;6.70;2.25;;;16.80;98.20;;;;;;5121486;27;20050;-76
2022/07/16 00:28:03;;;;;;;9.10;2.47;;;16.80;98.90;;;;;;5138493;27;20474;-77
2022/07/16 00:30:29;;;;;;;5.90;2.07;;;16.80;98.30;;;;;;5121431;27;20042;-76
2022/07/16 00:32:55;;;;;;;8.65;2.30;;;16.80;98.40;;;;;;5156919;27;20051;-75
2022/07/16 00:35:21;;;;;;;6.20;2.10;;;16.80;98.30;;;;;;5155321;27;20073;-76
2022/07/16 00:37:47;;;;;;;6.18;1.90;;;16.80;98.50;;;;;;5138405;27;20042;-76
2022/07/16 00:40:12;;;;;;;4.77;2.37;;;16.80;98.40;;;;;;5137542;27;20051;-75
2022/07/16 00:42:38;;;;;;;7.15;2.70;;;16.80;98.50;;;;;;5139051;27;20103;-76
2022/07/16 00:45:04;;;;;;;6.45;2.30;;;16.70;98.50;;;;;;5156181;27;20077;-76
2022/07/16 00:47:30;;;;;;;5.68;2.10;;;16.70;98.70;;;;;;5121970;27;20080;-76
2022/07/16 00:49:56;;;;;;;8.03;2.27;;;16.70;98.60;;;;;;5138794;27;20035;-75
2022/07/16 00:52:23;;;;;;;4.32;1.83;;;16.70;98.50;;;;;;5156025;27;20129;-76
2022/07/16 00:54:49;;;;;;;6.03;2.20;;;16.70;98.80;;;;;;5138689;27;20120;-76
2022/07/16 00:57:15;;;;;;;8.52;2.28;;;16.60;99.10;;;;;;5137891;27;20138;-76
2022/07/16 00:59:41;;;;;;;6.47;2.30;;;16.60;99.10;;;;;;5156644;27;20062;-76
2022/07/16 01:02:09;;;;;;;6.15;2.00;;;16.60;98.90;;;;;;5120680;27;20050;-75
2022/07/16 01:04:35;;;;;;;6.53;2.13;;;16.60;99.10;;;;;;5156571;27;20047;-75
2022/07/16 01:07:02;;;;;;;4.78;1.85;;;16.60;98.90;;;;;;5121519;27;20050;-75
2022/07/16 01:09:30;;;;;;;5.70;1.85;;;16.60;98.90;;;;;;5137812;27;20099;-77
2022/07/16 01:11:57;;;;;;;9.00;2.00;;;16.70;99.10;;;;;;5137455;27;20084;-82
2022/07/16 01:14:24;;;;;;;4.22;1.92;;;16.60;99.10;;;;;;5156105;27;20042;-77
2022/07/16 01:16:51;;;;;;;7.10;2.00;;;16.60;99.00;;;;;;5156103;27;20102;-77
2022/07/16 01:19:17;;;;;;;9.07;2.30;;;16.60;99.30;;;;;;5120979;27;20042;-76
2022/07/16 01:21:45;;;;;;;5.70;2.10;;;16.60;99.20;;;;;;5137530;27;20046;-76
2022/07/16 01:24:11;;;;;;;7.32;2.10;;;16.50;99.90;;;;;;5137433;27;20129;-74
2022/07/16 01:26:37;;;;;;;8.37;2.50;;;16.50;99.80;;;;;;5137957;27;20534;-76
2022/07/16 01:29:03;;;;;;;6.90;2.50;;;16.50;99.70;;;;;;5154268;27;20038;-76
2022/07/16 01:31:29;;;;;;;6.07;2.43;;;16.50;99.90;;;;;;5155828;27;20130;-76
2022/07/16 01:36:39;;;;;;;6.10;2.50;;;16.50;99.90;;;;;;5137412;27;20051;-76
2022/07/16 01:39:05;;;;;;;7.20;2.40;;;16.50;99.90;;;;;;5102709;27;20073;-76
2022/07/16 01:41:31;;;;;;;5.70;2.30;;;16.50;99.90;;;;;;5136934;27;20494;-75
2022/07/16 01:43:57;;;;;;;7.80;2.15;;;16.50;99.90;;;;;;5120038;27;20134;-74
2022/07/16 01:46:23;;;;;;;8.98;3.00;;;16.40;99.90;;;;;;5136902;27;20051;-75
2022/07/16 01:48:49;;;;;;;7.75;2.60;;;16.40;99.90;;;;;;5137276;27;20114;-75
2022/07/16 01:51:14;;;;;;;7.63;2.95;;;16.30;99.90;;;;;;5136582;27;20137;-75
2022/07/16 01:53:41;;;;;;;7.68;2.92;;;16.20;99.90;;;;;;5136803;27;20047;-76
2022/07/16 01:56:07;;;;;;;11.73;3.28;;;16.10;99.90;;;;;;5120402;27;20103;-76
2022/07/16 01:58:33;;;;;;;8.15;3.03;;;16.10;99.90;;;;;;5153522;27;20062;-76
2022/07/16 02:00:58;;;;;;;9.13;3.53;;;16.10;99.90;;;;;;5136729;27;20043;-76
2022/07/16 02:03:24;;;;;;;8.93;3.35;;;16.00;99.90;;;;;;5136908;27;20039;-77
2022/07/16 02:05:50;;;;;;;9.97;3.40;;;16.10;99.90;;;;;;5136336;27;20548;-77
2022/07/16 02:08:16;;;;;;;9.05;3.60;;;16.00;99.90;;;;;;5136368;27;20507;-76
2022/07/16 02:10:42;;;;;;;8.85;3.60;;;15.90;99.90;;;;;;5154556;27;20081;-76
2022/07/16 02:13:07;;;;;;;10.82;4.10;;;15.80;99.90;;;;;;5119323;27;20089;-76
2022/07/16 02:15:34;;;;;;;10.02;4.07;;;15.80;99.90;;;;;;5136684;27;20607;-77
2022/07/16 02:17:59;;;;;;;7.63;3.97;;;15.80;99.90;;;;;;5154889;27;20042;-76
2022/07/16 02:20:25;;;;;;;8.10;3.53;;;15.70;99.90;;;;;;5119304;27;20058;-74
2022/07/16 02:22:55;;;;;;;10.80;4.28;;;15.70;99.90;;;;;;5154510;27;20051;-76
2022/07/16 02:25:21;;;;;;;10.88;4.22;;;15.70;99.90;;;;;;5155144;27;20038;-75
2022/07/16 02:30:32;;;;;;;9.10;3.78;;;15.60;99.90;;;;;;5154648;27;20047;-74
2022/07/16 02:32:57;;;;;;;11.10;4.43;;;15.60;99.90;;;;;;5154265;27;20039;-74
2022/07/16 02:35:23;;;;;;;10.57;3.97;;;15.80;99.90;;;;;;5154563;27;20065;-75
2022/07/16 02:37:49;;;;;;;11.50;3.88;;;15.80;99.90;;;;;;5118890;27;20050;-77
2022/07/16 02:40:15;;;;;;;13.20;3.80;;;15.70;99.90;;;;;;5133055;27;20428;-75
2022/07/16 02:42:42;;;;;;;6.95;3.20;;;15.80;99.90;;;;;;5134529;27;20055;-76
2022/07/16 02:45:08;;;;;;;5.30;2.60;;;15.80;99.90;;;;;;5116317;27;20087;-76
2022/07/16 02:47:35;;;;;;;5.03;2.30;;;15.90;99.90;;;;;;5115428;27;20138;-75
2022/07/16 02:50:00;;;;;;;7.97;2.60;;;16.00;99.90;;;;;;5132782;27;20401;-75
2022/07/16 02:52:26;;;;;;;9.98;2.45;;;16.00;99.90;;;;;;5115114;27;20039;-73
2022/07/16 02:54:52;;;;;;;10.63;2.08;;;15.90;99.90;;;;;;5132865;27;20130;-77
2022/07/16 02:57:18;;;;;;;6.90;1.85;;;15.90;99.90;;;;;;5133552;27;20146;-75
2022/07/16 02:59:43;;;;;;;9.07;1.90;;;15.90;99.90;;;;;;5149632;27;20039;-76
2022/07/16 03:02:09;;;;;;;9.65;1.88;;;15.80;99.90;;;;;;5115598;28;20046;-75
2022/07/16 03:04:35;;;;;;;9.15;1.98;;;15.70;99.90;;;;;;5133582;28;20131;-75
2022/07/16 03:07:00;;;;;;;9.20;1.70;;;15.70;99.90;;;;;;5134203;28;20043;-76
2022/07/16 03:09:26;;;;;;;8.38;1.80;;;15.70;99.90;;;;;;5132274;28;20050;-75
2022/07/16 03:11:52;;;;;;;7.05;2.00;;;15.60;99.90;;;;;;5149386;27;20047;-78
2022/07/16 03:14:17;;;;;;;5.85;1.48;;;15.60;99.90;;;;;;5150214;27;20071;-75
2022/07/16 03:16:43;;;;;;;6.28;1.50;;;15.60;99.90;;;;;;5149158;27;20392;-76
2022/07/16 03:19:09;;;;;;;7.93;2.00;;;15.60;99.90;;;;;;5115070;28;20051;-75
2022/07/16 03:21:34;;;;;;;8.70;1.50;;;15.60;99.90;;;;;;5149642;27;20367;-74
2022/07/16 03:24:00;;;;;;;5.93;1.75;;;15.60;99.90;;;;;;5150318;27;20071;-76
2022/07/16 03:26:26;;;;;;;10.87;1.70;;;15.60;99.90;;;;;;5137708;27;20049;-77
2022/07/16 03:28:52;;;;;;;6.65;1.42;;;15.60;99.90;;;;;;5136384;27;20543;-76
2022/07/16 03:31:17;;;;;;;5.38;1.85;;;15.60;99.90;;;;;;5119009;27;20096;-76
2022/07/16 03:33:44;;;;;;;5.93;1.52;;;15.60;99.90;;;;;;5135679;27;20040;-75
2022/07/16 03:36:10;;;;;;;8.17;1.53;;;15.60;99.90;;;;;;5136293;27;20087;-78
2022/07/16 03:41:20;;;;;;;7.50;1.40;;;15.60;99.90;;;;;;5158127;27;20138;-78
2022/07/16 03:43:46;;;;;;;5.85;1.55;;;15.60;99.90;;;;;;5157346;27;20074;-76
2022/07/16 03:46:12;;;;;;;8.35;1.60;;;15.60;99.90;;;;;;5157996;27;20099;-75
2022/07/16 03:48:39;;;;;;;9.70;1.77;;;15.50;99.90;;;;;;5157904;27;20046;-77
2022/07/16 03:51:06;;;;;;;7.88;1.55;;;15.50;99.90;;;;;;5157703;27;20043;-74
2022/07/16 03:53:33;;;;;;;10.45;1.77;;;15.50;99.90;;;;;;5157462;27;20106;-76
2022/07/16 03:55:59;;;;;;;5.82;1.38;;;15.50;99.90;;;;;;5122065;27;20077;-75
2022/07/16 03:58:26;;;;;;;7.53;1.85;;;15.50;99.90;;;;;;5157455;27;20478;-77
2022/07/16 04:00:52;;;;;;;8.88;1.10;;;15.40;99.90;;;;;;5138669;27;20053;-77
2022/07/16 04:03:18;;;;;;;9.18;1.60;;;15.40;99.90;;;;;;5138653;27;20090;-77
2022/07/16 04:05:44;;;;;;;11.55;1.40;;;15.40;99.90;;;;;;5157281;27;20078;-79
2022/07/16 04:08:10;;;;;;;8.95;1.65;;;15.40;99.90;;;;;;5156803;27;20061;-80
2022/07/16 04:10:35;;;;;;;8.50;1.88;;;15.40;99.90;;;;;;5157231;27;20038;-77
2022/07/16 04:13:01;;;;;;;8.95;1.75;;;15.30;99.90;;;;;;5157531;27;20045;-76
2022/07/16 04:15:27;;;;;;;11.13;1.75;;;15.30;99.90;;;;;;5121773;27;20046;-75
2022/07/16 04:17:53;;;;;;;8.75;1.90;;;15.30;99.90;;;;;;5138872;27;20046;-76
2022/07/16 04:20:19;;;;;;;10.68;1.77;;;15.30;99.90;;;;;;5156326;27;20045;-75
2022/07/16 04:22:45;;;;;;;10.13;1.80;;;15.20;99.90;;;;;;5121742;27;20474;-75
2022/07/16 04:25:13;;;;;;;8.68;1.30;;;15.20;99.90;;;;;;5139146;27;20291;-77
2022/07/16 04:27:39;;;;;;;6.75;1.33;;;15.20;99.90;;;;;;5138689;27;20058;-76
2022/07/16 04:30:07;;;;;;;13.88;2.72;;;15.20;99.90;;;;;;5157396;27;20047;-77
2022/07/16 04:32:34;;;;;;;5.05;1.40;;;15.20;99.90;;;;;;5104407;27;20051;-77
2022/07/16 04:35:00;;;;;;;10.15;1.80;;;15.30;99.90;;;;;;5121268;27;20371;-77
2022/07/16 04:37:26;;;;;;;7.38;1.50;;;15.40;99.90;;;;;;5155855;27;20071;-76
2022/07/16 04:39:52;;;;;;;5.05;1.60;;;15.40;99.90;;;;;;5137982;27;20057;-77
2022/07/16 04:42:18;;;;;;;14.63;1.55;;;15.50;99.90;;;;;;5121156;27;20047;-78
2022/07/16 04:44:44;;;;;;;6.32;1.40;;;15.60;99.90;;;;;;5157257;27;20103;-77
2022/07/16 04:47:10;;;;;;;6.80;1.52;;;15.50;99.90;;;;;;5121042;27;20047;-75
2022/07/16 04:49:36;;;;;;;8.43;1.70;;;15.50;99.90;;;;;;5156508;27;20053;-75
2022/07/16 04:52:02;;;;;;;5.10;1.55;;;15.50;99.90;;;;;;5138757;27;20779;-75
2022/07/16 04:54:28;;;;;;;6.57;1.40;;;15.50;99.90;;;;;;5156769;27;20049;-74
2022/07/16 04:56:54;;;;;;;8.93;1.40;;;15.40;99.90;;;;;;5157095;27;20122;-79
2022/07/16 04:59:20;;;;;;;9.73;1.80;;;15.40;99.90;;;;;;5155212;27;20050;-77
2022/07/16 05:01:45;;;;;;;9.20;1.90;;;15.40;99.90;;;;;;5156657;27;20054;-76
2022/07/16 05:04:11;;;;;;;6.07;1.20;;;14.60;99.90;;;;;;5156373;27;20043;-77
2022/07/16 05:06:37;;;;;;;9.85;1.70;;;15.40;99.90;;;;;;5120753;27;20067;-76
2022/07/16 05:09:03;;;;;;;10.40;1.55;;;15.50;99.90;;;;;;5120963;27;20046;-76
2022/07/16 05:11:29;;;;;;;7.37;1.10;;;15.50;99.90;;;;;;5155330;27;20038;-78
2022/07/16 05:13:56;;;;;;;10.95;1.60;;;15.50;99.90;;;;;;5156127;27;20916;-77
2022/07/16 05:16:22;;;;;;;11.35;1.90;;;15.50;99.90;;;;;;5156595;27;20046;-74
2022/07/16 05:18:49;;;;;;;6.38;1.40;;;15.50;99.90;;;;;;5156638;27;20046;-75
2022/07/16 05:21:14;;;;;;;8.85;1.90;;;15.50;99.90;;;;;;5156157;27;20039;-75
2022/07/16 05:23:40;;;;;;;10.10;1.25;;;15.50;99.90;;;;;;5155996;27;20072;-74
2022/07/16 05:26:06;;;;;;;4.95;1.15;;;15.50;99.90;;;;;;5120350;27;20047;-76
2022/07/16 05:28:32;;;;;;;10.60;1.27;;;15.50;99.90;;;;;;5120352;27;20108;-78
2022/07/16 05:30:58;;;;;;;12.20;1.40;;;15.60;99.90;;;;;;5138145;27;20078;-78
2022/07/16 05:33:23;;;;;;;9.35;1.52;;;15.60;99.90;;;;;;5155628;27;20051;-75
2022/07/16 05:35:49;;;;;;;9.48;1.38;;;;;;;;;;5155763;27;20069;-80
2022/07/16 05:38:16;;;;;;;10.87;1.50;;;15.60;99.90;;;;;;5156191;27;20390;-77
2022/07/16 05:40:41;;;;;;;8.23;1.60;;;15.60;99.90;;;;;;5137185;27;20054;-75
2022/07/16 05:43:07;;;;;;;8.50;1.23;;;15.70;99.90;;;;;;5155630;27;20058;-74
2022/07/16 05:45:33;;;;;;;9.37;1.50;;;15.80;99.90;;;;;;5137301;27;20126;-77
2022/07/16 05:47:59;;;;;;;9.70;0.93;;;15.90;99.90;;;;;;5155146;27;20085;-75
2022/07/16 05:50:25;;;;;;;11.43;1.10;;;15.90;99.90;;;;;;5136911;27;20463;-74
2022/07/16 05:52:51;;;;;;;13.57;1.08;;;15.90;99.90;;;;;;5155258;27;20071;-76
2022/07/16 05:55:17;;;;;;;9.35;1.50;;;15.80;99.90;;;;;;5119860;27;20050;-76
2022/07/16 05:57:43;;;;;;;7.60;0.95;;;15.70;99.90;;;;;;5136764;27;20363;-78
2022/07/16 06:00:10;;;;;;;11.93;1.10;;;15.70;99.90;;;;;;5136555;27;20043;-73
2022/07/16 06:02:37;;;;;;;8.18;1.08;;;15.90;99.90;;;;;;5155202;27;20393;-75
2022/07/16 06:05:03;;;;;;;12.73;1.40;;;15.90;99.90;;;;;;5155558;27;20050;-75
2022/07/16 06:07:29;;;;;;;8.93;1.40;;;16.00;99.90;;;;;;5155185;27;20089;-74
2022/07/16 06:09:55;;;;;;;11.25;1.27;;;16.00;99.90;;;;;;5155165;27;20083;-76
2022/07/16 06:12:20;;;;;;;5.75;0.73;;;16.00;99.90;;;;;;5155230;27;20440;-76
2022/07/16 06:14:46;;;;;;;15.27;1.40;;;16.10;99.90;;;;;;5120336;27;20045;-76
2022/07/16 06:17:13;;;;;;;8.32;0.70;;;16.10;99.90;;;;;;5136701;27;20043;-76
2022/07/16 06:19:43;;;;;;;5.90;0.73;;;16.20;99.90;;;;;;5136669;27;20042;-75
2022/07/16 06:22:09;;;;;;;14.35;1.20;;;16.20;99.90;;;;;;5119174;27;20045;-74
2022/07/16 06:24:35;;;;;;;8.55;0.80;;;16.20;99.90;;;;;;5136029;27;20054;-77
2022/07/16 06:27:01;;;;;;;5.90;1.38;;;16.20;99.90;;;;;;5136275;27;20501;-76
2022/07/16 06:29:27;;;;;;;8.10;0.90;;;16.40;99.90;;;;;;5119683;27;20050;-73
2022/07/16 06:31:53;;;;;;;6.40;0.80;;;16.40;99.90;;;;;;5154779;27;20138;-77
2022/07/16 06:34:18;;;;;;;13.10;1.85;;;16.50;99.90;;;;;;5155155;27;20042;-76
2022/07/16 06:36:44;;;;;;;9.13;1.25;;;16.40;99.90;;;;;;5135784;27;20038;-76
2022/07/16 06:39:10;;;;;;;12.85;1.40;;;16.50;99.90;;;;;;5136276;27;20149;-76
2022/07/16 06:41:39;;;;;;;8.15;0.90;;;16.50;99.90;;;;;;5154636;27;20130;-79
2022/07/16 06:44:06;;;;;;;9.30;0.93;;;16.60;99.90;;;;;;5155063;27;20043;-75
2022/07/16 06:46:32;;;;;;;7.82;0.90;;;16.70;99.90;;;;;;5136738;27;20383;-76
2022/07/16 06:48:59;;;;;;;11.73;1.20;;;16.50;99.90;;;;;;5119550;27;20165;-74
2022/07/16 06:51:26;;;;;;;7.90;0.80;;;16.40;99.90;;;;;;5154967;27;20291;-78
2022/07/16 06:53:52;;;;;;;6.63;0.60;;;16.30;99.90;;;;;;5154801;27;20138;-75
2022/07/16 06:56:18;;;;;;;6.37;0.57;;;16.20;99.90;;;;;;5154372;27;20150;-74
2022/07/16 06:58:44;;;;;;;6.33;0.87;;;16.30;99.90;;;;;;5153600;27;20047;-77
2022/07/16 07:01:10;;;;;;;12.18;0.90;;;16.50;99.90;;;;;;5136035;27;20053;-76
2022/07/16 07:03:39;;;;;;;6.90;0.77;;;16.70;99.90;;;;;;5135795;27;20061;-78
2022/07/16 07:06:05;;;;;;;9.88;1.00;;;16.70;99.90;;;;;;5154052;27;20145;-76
2022/07/16 07:08:31;;;;;;;14.00;0.77;;;16.90;99.90;;;;;;5135673;27;20043;-76
2022/07/16 07:10:59;;;;;;;9.40;0.90;;;16.90;99.90;;;;;;5135892;27;20043;-75
2022/07/16 07:13:26;;;;;;;11.45;1.25;;;17.10;99.90;;;;;;5102693;27;20097;-78
2022/07/16 07:15:52;;;;;;;8.68;0.70;;;17.20;99.90;;;;;;5136243;27;20057;-78
2022/07/16 07:18:17;;;;;;;12.00;0.63;;;17.70;99.90;;;;;;5154214;27;20497;-76
2022/07/16 07:20:43;;;;;;;7.20;0.88;;;17.90;99.90;;;;;;5135959;27;20129;-76
2022/07/16 07:23:10;;;;;;;9.87;0.60;;;18.10;99.90;;;;;;5118531;27;20039;-75
2022/07/16 07:25:36;;;;;;;10.55;0.90;;;18.10;99.90;;;;;;5154255;27;20046;-74
2022/07/16 07:28:02;;;;;;;10.60;0.63;;;18.20;99.90;;;;;;5154737;27;20065;-76
2022/07/16 07:30:28;;;;;;;10.70;0.70;;;17.80;99.90;;;;;;5154124;27;20035;-76
2022/07/16 07:32:54;;;;;;;7.63;0.47;;;17.80;99.90;;;;;;5135552;27;20488;-78
2022/07/16 07:35:20;;;;;;;9.77;0.53;;;17.80;99.90;;;;;;5154010;27;20061;-77
2022/07/16 07:37:45;;;;;;;7.60;0.70;;;17.50;99.90;;;;;;5154525;27;20107;-77
2022/07/16 07:40:12;;;;;;;8.00;0.80;;;17.20;99.90;;;;;;5152457;27;20066;-77
2022/07/16 07:42:37;;;;;;;6.03;0.57;;;17.00;99.90;;;;;;5135720;27;20085;-76
2022/07/16 07:45:04;;;;;;;6.37;0.50;;;17.10;99.90;;;;;;5119097;27;20439;-77
2022/07/16 07:47:30;;;;;;;6.28;0.40;;;17.00;99.90;;;;;;5101885;27;20065;-76
2022/07/16 07:49:56;;;;;;;8.63;0.60;;;16.90;99.90;;;;;;5153950;27;20454;-77
2022/07/16 07:52:22;;;;;;;6.63;0.68;;;16.90;99.90;;;;;;5135407;27;20499;-79
2022/07/16 07:54:48;;;;;;;10.63;0.50;;;16.80;99.50;;;;;;5135749;27;20374;-75
2022/07/16 07:57:13;;;;;;;7.30;0.50;;;16.90;99.20;;;;;;5152704;27;20075;-77
2022/07/16 07:59:39;;;;;;;4.65;0.70;;;17.10;98.90;;;;;;5135798;27;20046;-75
2022/07/16 08:02:05;;;;;;;10.52;0.68;;;17.20;98.70;;;;;;5154324;27;20099;-75
2022/07/16 08:04:33;;;;;;;7.90;0.60;;;17.40;96.90;;;;;;5118868;27;20047;-76
2022/07/16 08:06:59;;;;;;;5.32;0.57;;;17.50;97.80;;;;;;5136000;27;20066;-74
2022/07/16 08:09:25;;;;;;;13.43;0.70;;;17.80;97.40;;;;;;5118971;27;20046;-74
2022/07/16 08:11:50;;;;;;;3.70;0.40;;;18.00;96.90;;;;;;5138814;27;20111;-74
2022/07/16 08:14:16;;;;;;;6.47;0.75;;;18.30;96.70;;;;;;5158229;27;20137;-74
2022/07/16 08:16:43;;;;;;;8.43;0.50;;;18.30;95.10;;;;;;5139989;27;20051;-75
2022/07/16 08:19:10;;;;;;;4.43;0.60;;;;;;;;;;5157750;27;20049;-77
2022/07/16 08:21:36;;;;;;;8.45;0.40;;;18.30;94.30;;;;;;5158509;27;20046;-77
2022/07/16 08:26:46;;;;;;;11.23;0.40;;;18.40;92.90;;;;;;5140939;27;20050;-76
2022/07/16 08:29:12;;;;;;;3.10;0.37;;;18.50;93.00;;;;;;5159355;27;20043;-75
2022/07/16 08:31:38;;;;;;;2.97;0.30;;;18.30;92.80;;;;;;5125879;27;20050;-75
2022/07/16 08:34:04;;;;;;;3.90;0.30;;;18.10;92.80;;;;;;5163318;27;20046;-73
2022/07/16 08:36:29;;;;;;;4.53;0.40;;;18.10;92.70;;;;;;5145839;27;20050;-77
2022/07/16 08:38:55;;;;;;;2.58;0.30;;;18.10;92.60;;;;;;5128459;27;20063;-75
2022/07/16 08:41:23;;;;;;;6.43;0.40;;;18.00;91.70;;;;;;5146509;27;20401;-76
2022/07/16 08:43:49;;;;;;;6.22;0.40;;;18.20;92.40;;;;;;5165978;27;20047;-75
2022/07/16 08:46:18;;;;;;;4.20;0.30;;;18.40;91.20;;;;;;5167265;27;20057;-83
2022/07/16 08:48:44;;;;;;;4.32;0.50;;;18.90;91.30;;;;;;5166319;27;20051;-73
2022/07/16 08:51:11;;;;;;;7.65;0.75;;;19.20;91.20;;;;;;5127734;27;20086;-76
2022/07/16 08:53:40;;;;;;;7.82;0.50;;;19.10;91.40;;;;;;5161987;27;20125;-77
2022/07/16 08:56:06;;;;;;;4.68;0.30;;;18.90;90.40;;;;;;5142056;27;20062;-76
2022/07/16 08:58:32;;;;;;;4.70;0.33;;;19.20;90.70;;;;;;5106413;27;20043;-78
2022/07/16 09:00:58;;;;;;;3.47;0.30;;;18.80;89.40;;;;;;5139918;27;20789;-77
2022/07/16 09:03:24;;;;;;;6.63;0.35;;;19.00;89.00;;;;;;5158522;27;20053;-77
2022/07/16 09:05:50;;;;;;;3.10;0.40;;;19.20;90.40;;;;;;5140453;27;20121;-77
2022/07/16 09:08:17;;;;;;;5.90;0.50;;;19.20;90.10;;;;;;5143765;27;20039;-77
2022/07/16 09:10:42;;;;;;;10.65;0.45;;;18.80;89.80;;;;;;5165585;27;20099;-76
2022/07/16 09:13:12;;;;;;;5.77;0.30;;;18.80;90.00;;;;;;5110491;27;20078;-75
2022/07/16 09:15:40;;;;;;;7.15;0.50;;;18.90;88.00;;;;;;5163407;27;20050;-76
2022/07/16 09:18:13;;;;;;;5.00;0.40;;;18.50;87.80;;;;;;5160061;27;20074;-75
2022/07/16 09:21:01;;;;;;;4.28;0.35;;;18.40;87.90;;;;;;5142419;27;20039;-75
2022/07/16 09:23:35;;;;;;;6.38;0.40;;;18.70;90.20;;;;;;5159992;27;20046;-76
2022/07/16 09:26:04;;;;;;;5.00;0.40;;;18.90;89.40;;;;;;5139530;27;20049;-75
2022/07/16 09:28:48;;;;;;;5.80;0.52;;;18.80;85.30;;;;;;5139952;27;20073;-78
2022/07/16 09:31:41;;;;;;;5.30;0.30;;;18.90;85.50;;;;;;5138869;27;20047;-76
2022/07/16 09:34:09;;;;;;;6.45;0.30;;;19.20;83.30;;;;;;5157211;27;20043;-77
2022/07/16 09:36:37;;;;;;;6.05;0.30;;;19.30;83.00;;;;;;5121447;27;20229;-75
2022/07/16 09:39:05;;;;;;;6.50;0.40;;;19.40;82.50;;;;;;5138686;27;20490;-75
2022/07/16 09:41:41;;;;;;;5.22;0.35;;;19.30;83.20;;;;;;5138201;27;20041;-75
2022/07/16 09:44:25;;;;;;;3.65;0.30;;;19.30;82.20;;;;;;5159271;27;20057;-77
2022/07/16 09:46:58;;;;;;;4.55;0.60;;;19.20;80.70;;;;;;5142943;27;20043;-76
2022/07/16 09:49:24;;;;;;;3.38;0.50;;;19.30;82.00;;;;;;5141002;27;20046;-77
2022/07/16 09:51:49;;;;;;;3.00;0.30;;;19.60;81.80;;;;;;5139611;27;20066;-76
2022/07/16 09:54:27;;;;;;;3.27;0.30;;;19.80;79.80;;;;;;5156981;27;20096;-75
2022/07/16 09:57:18;;;;;;;6.05;0.40;;;20.00;78.80;;;;;;5122546;27;20086;-77
2022/07/16 09:59:46;;;;;;;4.18;0.30;;;20.00;79.50;;;;;;5159521;27;20406;-81
2022/07/16 10:02:13;;;;;;;4.03;0.30;;;19.80;80.40;;;;;;5157487;27;20050;-75
2022/07/16 10:04:39;;;;;;;;;;;19.90;82.10;;;;;;5138886;27;20055;-76
2022/07/16 10:07:05;;;;;;;8.52;0.70;;;19.50;80.30;;;;;;5156935;27;19933;-75
2022/07/16 10:09:31;;;;;;;6.47;0.60;;;19.70;82.70;;;;;;5156177;27;20049;-75
2022/07/16 10:12:06;;;;;;;3.22;0.40;;;20.00;79.80;;;;;;5120665;27;20066;-75
2022/07/16 10:14:39;;;;;;;5.35;0.50;;;20.10;80.80;;;;;;5120261;27;20057;-75
2022/07/16 10:17:19;;;;;;;4.93;0.40;;;20.60;80.50;;;;;;5155875;27;20047;-76
2022/07/16 10:19:56;;;;;;;2.65;0.28;;;20.50;79.30;;;;;;5121024;27;20086;-78
2022/07/16 10:22:30;;;;;;;2.60;0.30;;;20.80;79.30;;;;;;5160266;27;20490;-76
2022/07/16 10:24:57;;;;;;;5.82;0.60;;;20.40;79.50;;;;;;5140262;27;20088;-75
2022/07/16 10:27:34;;;;;;;7.25;0.52;;;19.80;80.90;;;;;;5157734;27;20050;-75
2022/07/16 10:30:23;;;;;;;4.63;0.40;;;19.70;81.40;;;;;;5139307;27;20066;-73
2022/07/16 10:33:02;;;;;;;5.30;0.40;;;19.60;81.20;;;;;;5156725;27;20489;-78
2022/07/16 10:35:38;;;;;;;7.07;0.85;;;20.00;79.80;;;;;;5136129;27;20038;-75
2022/07/16 10:38:24;;;;;;;3.43;0.20;;;20.10;81.00;;;;;;5136194;27;20050;-74
2022/07/16 10:41:15;;;;;;;4.18;0.50;;;20.20;81.20;;;;;;5136274;27;20101;-76
2022/07/16 10:43:43;;;;;;;4.68;0.30;;;20.60;78.20;;;;;;5136968;27;20335;-76
2022/07/16 10:46:11;;;;;;;8.32;0.55;;;20.70;79.40;;;;;;5154857;27;20450;-75
2022/07/16 10:48:37;;;;;;;3.63;0.32;;;20.60;79.80;;;;;;5155085;27;20053;-75
2022/07/16 10:51:13;;;;;;;3.93;0.40;;;20.20;80.20;;;;;;5154241;27;20130;-75
2022/07/16 10:53:57;;;;;;;5.55;0.40;;;20.50;81.50;;;;;;5154934;27;20512;-76
2022/07/16 10:56:37;;;;;;;5.00;0.50;;;20.30;78.50;;;;;;5154381;27;20398;-73
2022/07/16 10:59:04;;;;;;;4.38;0.35;;;20.70;80.50;;;;;;5135883;27;20046;-73
2022/07/16 11:01:30;;;;;;;9.10;0.55;;;20.90;77.80;;;;;;5135987;27;20051;-76
2022/07/16 11:03:56;;;;;;;7.38;0.50;;;20.90;78.70;;;;;;5154280;27;20054;-77
2022/07/16 11:06:22;;;;;;;7.23;0.57;;;21.20;78.10;;;;;;5154218;27;20049;-75
2022/07/16 11:08:56;;;;;;;6.07;0.70;;;20.80;77.80;;;;;;5154846;27;20272;-75
2022/07/16 11:11:22;;;;;;;4.55;0.40;;;20.60;78.80;;;;;;5119718;27;20395;-75
2022/07/16 11:13:54;;;;;;;6.85;0.50;;;20.50;79.40;;;;;;5136131;27;20051;-76
2022/07/16 11:16:20;;;;;;;5.07;0.50;;;20.40;79.50;;;;;;5136914;27;20163;-75
2022/07/16 11:18:47;;;;;;;5.50;0.40;;;20.10;81.20;;;;;;5102318;27;20047;-76
2022/07/16 11:21:12;;;;;;;10.43;0.50;;;19.90;80.10;;;;;;5154429;27;20050;-76
2022/07/16 11:23:55;;;;;;;7.20;0.40;;;20.20;80.90;;;;;;5118463;27;20478;-74
2022/07/16 11:26:21;;;;;;;3.88;0.40;;;20.20;78.90;;;;;;5136478;27;20451;-74
2022/07/16 11:28:59;;;;;;;3.67;0.30;;;20.20;78.20;;;;;;5136029;27;20049;-77
2022/07/16 11:31:29;;;;;;;6.80;0.50;;;19.90;79.10;;;;;;5135593;27;20068;-76
2022/07/16 11:33:59;;;;;;;4.28;0.50;;;20.40;80.00;;;;;;5135360;27;20051;-74
2022/07/16 11:36:34;;;;;;;5.30;0.40;;;20.70;80.90;;;;;;5118507;27;20047;-75
2022/07/16 11:39:08;;;;;;;6.22;0.30;;;21.00;79.40;;;;;;5118407;27;20094;-74
2022/07/16 11:41:36;;;;;;;6.22;0.40;;;21.20;76.60;;;;;;5153628;27;20078;-76
2022/07/16 11:44:13;;;;;;;6.03;0.45;;;21.00;75.00;;;;;;5136163;27;20160;-75
2022/07/16 11:46:57;;;;;;;5.55;0.40;;;21.10;75.80;;;;;;5123395;27;20104;-73
2022/07/16 11:49:32;;;;;;;4.13;0.32;;;20.50;74.30;;;;;;5162220;27;20051;-75
2022/07/16 11:52:04;;;;;;;3.37;0.37;;;20.70;75.60;;;;;;5160862;27;20043;-74
2022/07/16 11:54:34;;;;;;;2.38;0.30;;;20.40;75.20;;;;;;5159393;27;20487;-76
2022/07/16 11:57:00;;;;;;;4.55;0.50;;;20.30;76.70;;;;;;5140256;27;20102;-74
2022/07/16 11:59:27;;;;;;;2.80;0.40;;;20.70;78.30;;;;;;5158049;27;20532;-75
2022/07/16 12:02:13;;;;;;;4.38;0.40;;;21.20;76.90;;;;;;5140383;27;20038;-74
2022/07/16 12:04:42;;;;;;;4.28;0.40;;;21.90;76.00;;;;;;5140320;27;20047;-74
2022/07/16 12:07:14;;;;;;;3.58;0.40;;;22.10;74.50;;;;;;5140186;27;20481;-74
2022/07/16 12:09:42;;;;;;;4.70;0.30;;;21.90;72.10;;;;;;5140291;27;20042;-76
2022/07/16 12:12:35;;;;;;;2.45;0.38;;;21.70;73.40;;;;;;5158495;27;20122;-78
2022/07/16 12:15:04;;;;;;;6.75;0.77;;;21.50;72.30;;;;;;5158299;27;20043;-76
2022/07/16 12:17:38;;;;;;;4.43;0.40;;;21.20;74.90;;;;;;5140104;27;20497;-75
2022/07/16 12:20:22;;;;;;;6.55;0.75;;;21.00;76.40;;;;;;5138609;27;20047;-76
2022/07/16 12:23:05;;;;;;;4.85;0.55;;;20.90;75.80;;;;;;5138745;27;20054;-74
2022/07/16 12:25:35;;;;;;;5.93;0.43;;;20.80;76.60;;;;;;5139202;27;20055;-75
2022/07/16 12:28:06;;;;;;;5.35;0.43;;;20.50;77.50;;;;;;5139473;27;20092;-73
2022/07/16 12:30:50;;;;;;;5.45;0.50;;;20.30;76.60;;;;;;5158049;27;20062;-73
2022/07/16 12:33:15;;;;;;;3.83;0.40;;;20.80;77.20;;;;;;5139675;27;20107;-76
2022/07/16 12:35:51;;;;;;;5.93;0.57;;;21.20;76.90;;;;;;5157835;27;20082;-76
2022/07/16 12:38:47;;;;;;;7.90;0.80;;;21.40;76.60;;;;;;5122523;27;20102;-74
2022/07/16 12:41:17;;;;;;;8.90;0.70;;;21.30;76.00;;;;;;5139710;27;20062;-76
2022/07/16 12:43:44;;;;;;;5.07;0.50;;;20.80;77.30;;;;;;5158305;27;20085;-77
2022/07/16 12:46:11;;;;;;;4.45;0.50;;;21.00;78.40;;;;;;5157294;27;20130;-74
2022/07/16 12:48:50;;;;;;;4.90;0.38;;;21.00;77.50;;;;;;5121677;27;20050;-74
2022/07/16 12:51:19;;;;;;;8.73;0.63;;;20.70;78.40;;;;;;5138948;27;20058;-76
2022/07/16 12:53:45;;;;;;;8.25;0.47;;;20.50;77.90;;;;;;5157357;27;20051;-75
2022/07/16 12:58:57;;;;;;;4.55;0.63;;;20.80;78.00;;;;;;5156432;27;20043;-75
2022/07/16 13:01:24;;;;;;;4.38;0.40;;;21.10;76.90;;;;;;5156023;27;20112;-76
2022/07/16 13:03:51;;;;;;;7.13;0.63;;;21.30;75.30;;;;;;5156627;27;20061;-74
2022/07/16 13:06:18;;;;;;;6.13;0.50;;;21.10;76.20;;;;;;5137686;27;20058;-75
2022/07/16 13:08:43;;;;;;;7.20;0.60;;;20.90;75.90;;;;;;5121088;27;20046;-76